sensor_id;sensor_type;location;lat;lon;timestamp;P1;durP1;ratioP1;P2;durP2;ratioP2
10309;SDS011;5200;43.236;27.986;2022-09-21T00:00:21;1.08;;;1.02;;
10309;SDS011;5200;43.236;27.986;2022-09-21T00:02:48;1.25;;;1.15;;
10309;SDS011;5200;43.236;27.986;2022-09-21T00:05:15;1.30;;;1.20;;
10309;SDS011;5200;43.236;27.986;2022-09-21T00:07:42;2.88;;;1.30;;
10309;SDS011;5200;43.236;27.986;2022-09-21T00:10:11;1.50;;;1.40;;
10309;SDS011;5200;43.236;27.986;2022-09-21T00:12:38;3.30;;;1.55;;
10309;SDS011;5200;43.236;27.986;2022-09-21T00:15:05;3.72;;;1.10;;
10309;SDS011;5200;43.236;27.986;2022-09-21T00:17:33;2.58;;;1.27;;
10309;SDS011;5200;43.236;27.986;2022-09-21T00:20:00;1.63;;;1.50;;
10309;SDS011;5200;43.236;27.986;2022-09-21T00:22:30;2.88;;;1.10;;
10309;SDS011;5200;43.236;27.986;2022-09-21T00:24:57;1.70;;;1.13;;
10309;SDS011;5200;43.236;27.986;2022-09-21T00:27:26;1.00;;;1.00;;
10309;SDS011;5200;43.236;27.986;2022-09-21T00:29:55;2.85;;;1.30;;
10309;SDS011;5200;43.236;27.986;2022-09-21T00:32:22;1.77;;;1.40;;
10309;SDS011;5200;43.236;27.986;2022-09-21T00:34:50;1.27;;;1.20;;
10309;SDS011;5200;43.236;27.986;2022-09-21T00:37:17;0.90;;;0.90;;
10309;SDS011;5200;43.236;27.986;2022-09-21T00:39:43;1.38;;;1.27;;
10309;SDS011;5200;43.236;27.986;2022-09-21T00:42:12;1.88;;;1.50;;
10309;SDS011;5200;43.236;27.986;2022-09-21T00:44:44;1.70;;;1.40;;
10309;SDS011;5200;43.236;27.986;2022-09-21T00:47:11;1.90;;;1.35;;
10309;SDS011;5200;43.236;27.986;2022-09-21T00:49:40;2.25;;;1.08;;
10309;SDS011;5200;43.236;27.986;2022-09-21T00:52:08;1.38;;;1.20;;
10309;SDS011;5200;43.236;27.986;2022-09-21T00:54:40;1.52;;;1.35;;
10309;SDS011;5200;43.236;27.986;2022-09-21T00:57:10;1.52;;;1.20;;
10309;SDS011;5200;43.236;27.986;2022-09-21T00:59:39;1.30;;;1.20;;
10309;SDS011;5200;43.236;27.986;2022-09-21T01:02:11;0.95;;;0.95;;
10309;SDS011;5200;43.236;27.986;2022-09-21T01:04:38;1.30;;;1.20;;
10309;SDS011;5200;43.236;27.986;2022-09-21T01:07:06;1.20;;;1.10;;
10309;SDS011;5200;43.236;27.986;2022-09-21T01:09:37;1.40;;;1.30;;
10309;SDS011;5200;43.236;27.986;2022-09-21T01:12:08;1.20;;;1.10;;
10309;SDS011;5200;43.236;27.986;2022-09-21T01:14:54;1.42;;;1.05;;
10309;SDS011;5200;43.236;27.986;2022-09-21T01:17:39;1.42;;;1.20;;
10309;SDS011;5200;43.236;27.986;2022-09-21T01:23:29;1.08;;;1.08;;
10309;SDS011;5200;43.236;27.986;2022-09-21T01:26:07;1.10;;;1.10;;
10309;SDS011;5200;43.236;27.986;2022-09-21T01:28:53;1.98;;;1.00;;
10309;SDS011;5200;43.236;27.986;2022-09-21T01:31:27;1.15;;;1.15;;
10309;SDS011;5200;43.236;27.986;2022-09-21T01:34:01;2.33;;;1.25;;
10309;SDS011;5200;43.236;27.986;2022-09-21T01:36:33;2.58;;;1.10;;
10309;SDS011;5200;43.236;27.986;2022-09-21T01:39:03;1.48;;;1.38;;
10309;SDS011;5200;43.236;27.986;2022-09-21T01:41:33;2.83;;;1.30;;
10309;SDS011;5200;43.236;27.986;2022-09-21T01:44:04;1.35;;;1.10;;
10309;SDS011;5200;43.236;27.986;2022-09-21T01:46:35;1.17;;;1.17;;
10309;SDS011;5200;43.236;27.986;2022-09-21T01:49:04;1.25;;;0.98;;
10309;SDS011;5200;43.236;27.986;2022-09-21T01:51:35;1.27;;;1.15;;
10309;SDS011;5200;43.236;27.986;2022-09-21T01:54:09;3.33;;;1.30;;
10309;SDS011;5200;43.236;27.986;2022-09-21T01:56:40;1.02;;;0.98;;
10309;SDS011;5200;43.236;27.986;2022-09-21T01:59:15;1.45;;;1.10;;
10309;SDS011;5200;43.236;27.986;2022-09-21T02:01:49;0.85;;;0.85;;
10309;SDS011;5200;43.236;27.986;2022-09-21T02:04:20;2.72;;;1.20;;
10309;SDS011;5200;43.236;27.986;2022-09-21T02:06:47;1.40;;;1.30;;
10309;SDS011;5200;43.236;27.986;2022-09-21T02:09:15;2.90;;;1.02;;
10309;SDS011;5200;43.236;27.986;2022-09-21T02:11:43;1.60;;;1.35;;
10309;SDS011;5200;43.236;27.986;2022-09-21T02:14:10;1.42;;;1.10;;
10309;SDS011;5200;43.236;27.986;2022-09-21T02:16:43;3.47;;;1.02;;
10309;SDS011;5200;43.236;27.986;2022-09-21T02:19:17;1.10;;;1.00;;
10309;SDS011;5200;43.236;27.986;2022-09-21T02:21:54;2.95;;;1.40;;
10309;SDS011;5200;43.236;27.986;2022-09-21T02:24:31;1.25;;;1.23;;
10309;SDS011;5200;43.236;27.986;2022-09-21T02:27:04;0.95;;;0.93;;
10309;SDS011;5200;43.236;27.986;2022-09-21T02:29:40;1.10;;;1.05;;
10309;SDS011;5200;43.236;27.986;2022-09-21T02:32:16;1.88;;;1.00;;
10309;SDS011;5200;43.236;27.986;2022-09-21T02:34:52;3.25;;;1.27;;
10309;SDS011;5200;43.236;27.986;2022-09-21T02:37:29;1.10;;;1.00;;
10309;SDS011;5200;43.236;27.986;2022-09-21T02:40:03;1.20;;;1.10;;
10309;SDS011;5200;43.236;27.986;2022-09-21T02:42:37;1.13;;;1.00;;
10309;SDS011;5200;43.236;27.986;2022-09-21T02:45:08;1.00;;;1.00;;
10309;SDS011;5200;43.236;27.986;2022-09-21T02:47:41;1.67;;;1.20;;
10309;SDS011;5200;43.236;27.986;2022-09-21T02:50:14;2.85;;;1.42;;
10309;SDS011;5200;43.236;27.986;2022-09-21T02:52:47;1.40;;;1.30;;
10309;SDS011;5200;43.236;27.986;2022-09-21T02:55:14;1.27;;;1.17;;
10309;SDS011;5200;43.236;27.986;2022-09-21T02:57:43;1.70;;;1.40;;
10309;SDS011;5200;43.236;27.986;2022-09-21T03:00:11;1.52;;;1.17;;
10309;SDS011;5200;43.236;27.986;2022-09-21T03:02:43;3.42;;;1.50;;
10309;SDS011;5200;43.236;27.986;2022-09-21T03:05:11;1.92;;;1.15;;
10309;SDS011;5200;43.236;27.986;2022-09-21T03:07:39;1.95;;;0.88;;
10309;SDS011;5200;43.236;27.986;2022-09-21T03:10:06;2.10;;;1.45;;
10309;SDS011;5200;43.236;27.986;2022-09-21T03:12:33;2.45;;;1.27;;
10309;SDS011;5200;43.236;27.986;2022-09-21T03:15:01;1.63;;;1.38;;
10309;SDS011;5200;43.236;27.986;2022-09-21T03:17:29;2.65;;;1.15;;
10309;SDS011;5200;43.236;27.986;2022-09-21T03:19:57;1.92;;;1.30;;
10309;SDS011;5200;43.236;27.986;2022-09-21T03:22:24;3.65;;;1.17;;
10309;SDS011;5200;43.236;27.986;2022-09-21T03:24:51;1.55;;;1.05;;
10309;SDS011;5200;43.236;27.986;2022-09-21T03:27:21;1.23;;;1.13;;
10309;SDS011;5200;43.236;27.986;2022-09-21T03:29:48;1.48;;;0.98;;
10309;SDS011;5200;43.236;27.986;2022-09-21T03:32:15;1.20;;;1.10;;
10309;SDS011;5200;43.236;27.986;2022-09-21T03:34:42;1.38;;;1.27;;
10309;SDS011;5200;43.236;27.986;2022-09-21T03:37:10;0.90;;;0.90;;
10309;SDS011;5200;43.236;27.986;2022-09-21T03:39:37;1.05;;;1.05;;
10309;SDS011;5200;43.236;27.986;2022-09-21T03:42:04;6.15;;;1.30;;
10309;SDS011;5200;43.236;27.986;2022-09-21T03:44:33;1.63;;;1.20;;
10309;SDS011;5200;43.236;27.986;2022-09-21T03:47:01;1.27;;;1.15;;
10309;SDS011;5200;43.236;27.986;2022-09-21T03:49:31;6.18;;;1.98;;
10309;SDS011;5200;43.236;27.986;2022-09-21T03:51:58;1.63;;;1.00;;
10309;SDS011;5200;43.236;27.986;2022-09-21T03:54:27;2.70;;;1.35;;
10309;SDS011;5200;43.236;27.986;2022-09-21T03:56:54;1.42;;;1.33;;
10309;SDS011;5200;43.236;27.986;2022-09-21T03:59:22;3.20;;;1.30;;
10309;SDS011;5200;43.236;27.986;2022-09-21T04:01:48;2.00;;;1.52;;
10309;SDS011;5200;43.236;27.986;2022-09-21T04:04:15;1.60;;;1.48;;
10309;SDS011;5200;43.236;27.986;2022-09-21T04:06:42;1.23;;;1.13;;
10309;SDS011;5200;43.236;27.986;2022-09-21T04:09:10;2.63;;;1.40;;
10309;SDS011;5200;43.236;27.986;2022-09-21T04:11:39;1.40;;;1.30;;
10309;SDS011;5200;43.236;27.986;2022-09-21T04:14:06;3.17;;;1.35;;
10309;SDS011;5200;43.236;27.986;2022-09-21T04:16:32;2.67;;;1.38;;
10309;SDS011;5200;43.236;27.986;2022-09-21T04:18:59;1.17;;;1.13;;
10309;SDS011;5200;43.236;27.986;2022-09-21T04:21:26;3.38;;;1.30;;
10309;SDS011;5200;43.236;27.986;2022-09-21T04:23:54;1.20;;;1.15;;
10309;SDS011;5200;43.236;27.986;2022-09-21T04:26:21;1.33;;;1.23;;
10309;SDS011;5200;43.236;27.986;2022-09-21T04:28:51;1.83;;;1.38;;
10309;SDS011;5200;43.236;27.986;2022-09-21T04:31:20;2.72;;;1.33;;
10309;SDS011;5200;43.236;27.986;2022-09-21T04:33:48;4.93;;;1.40;;
10309;SDS011;5200;43.236;27.986;2022-09-21T04:36:15;1.00;;;1.00;;
10309;SDS011;5200;43.236;27.986;2022-09-21T04:38:43;2.00;;;1.35;;
10309;SDS011;5200;43.236;27.986;2022-09-21T04:41:10;3.53;;;1.50;;
10309;SDS011;5200;43.236;27.986;2022-09-21T04:43:37;2.90;;;1.10;;
10309;SDS011;5200;43.236;27.986;2022-09-21T04:46:08;4.88;;;1.20;;
10309;SDS011;5200;43.236;27.986;2022-09-21T04:48:37;1.67;;;1.08;;
10309;SDS011;5200;43.236;27.986;2022-09-21T04:51:04;1.40;;;1.30;;
10309;SDS011;5200;43.236;27.986;2022-09-21T04:53:32;1.25;;;1.13;;
10309;SDS011;5200;43.236;27.986;2022-09-21T04:55:59;0.95;;;0.95;;
10309;SDS011;5200;43.236;27.986;2022-09-21T04:58:26;3.15;;;1.60;;
10309;SDS011;5200;43.236;27.986;2022-09-21T05:00:53;2.55;;;1.38;;
10309;SDS011;5200;43.236;27.986;2022-09-21T05:03:22;5.38;;;1.50;;
10309;SDS011;5200;43.236;27.986;2022-09-21T05:05:50;2.45;;;1.33;;
10309;SDS011;5200;43.236;27.986;2022-09-21T05:08:18;1.83;;;1.50;;
10309;SDS011;5200;43.236;27.986;2022-09-21T05:11:07;1.60;;;1.45;;
10309;SDS011;5200;43.236;27.986;2022-09-21T05:13:35;1.60;;;1.40;;
10309;SDS011;5200;43.236;27.986;2022-09-21T05:16:02;1.23;;;1.13;;
10309;SDS011;5200;43.236;27.986;2022-09-21T05:18:30;1.65;;;1.35;;
10309;SDS011;5200;43.236;27.986;2022-09-21T05:20:58;1.65;;;1.38;;
10309;SDS011;5200;43.236;27.986;2022-09-21T05:23:26;1.40;;;1.30;;
10309;SDS011;5200;43.236;27.986;2022-09-21T05:25:53;2.13;;;1.73;;
10309;SDS011;5200;43.236;27.986;2022-09-21T05:28:21;1.42;;;1.30;;
10309;SDS011;5200;43.236;27.986;2022-09-21T05:30:50;1.83;;;1.60;;
10309;SDS011;5200;43.236;27.986;2022-09-21T05:33:22;2.22;;;1.08;;
10309;SDS011;5200;43.236;27.986;2022-09-21T05:35:57;1.40;;;1.30;;
10309;SDS011;5200;43.236;27.986;2022-09-21T05:38:32;2.20;;;1.52;;
10309;SDS011;5200;43.236;27.986;2022-09-21T05:40:59;1.20;;;1.10;;
10309;SDS011;5200;43.236;27.986;2022-09-21T05:43:27;2.90;;;1.20;;
10309;SDS011;5200;43.236;27.986;2022-09-21T05:45:56;2.50;;;1.27;;
10309;SDS011;5200;43.236;27.986;2022-09-21T05:48:28;1.35;;;1.25;;
10309;SDS011;5200;43.236;27.986;2022-09-21T05:51:04;1.20;;;1.20;;
10309;SDS011;5200;43.236;27.986;2022-09-21T05:53:39;1.42;;;1.33;;
10309;SDS011;5200;43.236;27.986;2022-09-21T05:56:18;7.07;;;1.30;;
10309;SDS011;5200;43.236;27.986;2022-09-21T05:58:56;1.20;;;1.10;;
10309;SDS011;5200;43.236;27.986;2022-09-21T06:01:36;4.50;;;1.40;;
10309;SDS011;5200;43.236;27.986;2022-09-21T06:04:24;1.75;;;1.20;;
10309;SDS011;5200;43.236;27.986;2022-09-21T06:06:52;1.70;;;1.30;;
10309;SDS011;5200;43.236;27.986;2022-09-21T06:09:19;2.33;;;1.25;;
10309;SDS011;5200;43.236;27.986;2022-09-21T06:11:46;1.58;;;1.35;;
10309;SDS011;5200;43.236;27.986;2022-09-21T06:14:13;1.85;;;1.52;;
10309;SDS011;5200;43.236;27.986;2022-09-21T06:16:41;2.75;;;1.83;;
10309;SDS011;5200;43.236;27.986;2022-09-21T06:19:09;4.43;;;1.30;;
10309;SDS011;5200;43.236;27.986;2022-09-21T06:21:36;1.80;;;1.30;;
10309;SDS011;5200;43.236;27.986;2022-09-21T06:24:05;1.17;;;1.10;;
10309;SDS011;5200;43.236;27.986;2022-09-21T06:26:32;1.23;;;1.13;;
10309;SDS011;5200;43.236;27.986;2022-09-21T06:28:59;1.20;;;1.05;;
10309;SDS011;5200;43.236;27.986;2022-09-21T06:31:26;1.08;;;1.00;;
10309;SDS011;5200;43.236;27.986;2022-09-21T06:33:53;1.38;;;1.10;;
10309;SDS011;5200;43.236;27.986;2022-09-21T06:36:20;1.30;;;1.20;;
10309;SDS011;5200;43.236;27.986;2022-09-21T06:38:47;1.17;;;1.08;;
10309;SDS011;5200;43.236;27.986;2022-09-21T06:41:15;1.30;;;1.00;;
10309;SDS011;5200;43.236;27.986;2022-09-21T06:43:42;1.02;;;0.90;;
10309;SDS011;5200;43.236;27.986;2022-09-21T06:46:09;0.77;;;0.77;;
10309;SDS011;5200;43.236;27.986;2022-09-21T06:48:36;2.50;;;1.10;;
10309;SDS011;5200;43.236;27.986;2022-09-21T06:51:03;2.28;;;0.90;;
10309;SDS011;5200;43.236;27.986;2022-09-21T06:53:32;0.95;;;0.95;;
10309;SDS011;5200;43.236;27.986;2022-09-21T06:56:00;0.93;;;0.93;;
10309;SDS011;5200;43.236;27.986;2022-09-21T06:58:30;1.02;;;0.90;;
10309;SDS011;5200;43.236;27.986;2022-09-21T07:01:02;1.17;;;1.08;;
10309;SDS011;5200;43.236;27.986;2022-09-21T07:03:30;1.30;;;1.20;;
10309;SDS011;5200;43.236;27.986;2022-09-21T07:05:57;1.38;;;0.93;;
10309;SDS011;5200;43.236;27.986;2022-09-21T07:08:23;0.75;;;0.75;;
10309;SDS011;5200;43.236;27.986;2022-09-21T07:10:51;1.17;;;1.08;;
10309;SDS011;5200;43.236;27.986;2022-09-21T07:13:18;1.88;;;1.38;;
10309;SDS011;5200;43.236;27.986;2022-09-21T07:15:46;1.58;;;0.75;;
10309;SDS011;5200;43.236;27.986;2022-09-21T07:18:13;1.33;;;1.20;;
10309;SDS011;5200;43.236;27.986;2022-09-21T07:20:40;3.17;;;1.00;;
10309;SDS011;5200;43.236;27.986;2022-09-21T07:23:10;0.95;;;0.80;;
10309;SDS011;5200;43.236;27.986;2022-09-21T07:25:38;0.63;;;0.60;;
10309;SDS011;5200;43.236;27.986;2022-09-21T07:28:05;0.70;;;0.70;;
10309;SDS011;5200;43.236;27.986;2022-09-21T07:30:32;1.73;;;1.40;;
10309;SDS011;5200;43.236;27.986;2022-09-21T07:33:00;1.17;;;0.90;;
10309;SDS011;5200;43.236;27.986;2022-09-21T07:35:27;3.58;;;0.77;;
10309;SDS011;5200;43.236;27.986;2022-09-21T07:37:56;0.60;;;0.60;;
10309;SDS011;5200;43.236;27.986;2022-09-21T07:40:23;0.60;;;0.60;;
10309;SDS011;5200;43.236;27.986;2022-09-21T07:42:50;1.48;;;0.80;;
10309;SDS011;5200;43.236;27.986;2022-09-21T07:45:17;1.65;;;1.20;;
10309;SDS011;5200;43.236;27.986;2022-09-21T07:47:43;0.93;;;0.93;;
10309;SDS011;5200;43.236;27.986;2022-09-21T07:50:12;1.15;;;0.63;;
10309;SDS011;5200;43.236;27.986;2022-09-21T07:52:39;0.77;;;0.77;;
10309;SDS011;5200;43.236;27.986;2022-09-21T07:55:06;2.05;;;0.70;;
10309;SDS011;5200;43.236;27.986;2022-09-21T07:57:33;0.60;;;0.60;;
10309;SDS011;5200;43.236;27.986;2022-09-21T08:00:17;0.80;;;0.80;;
10309;SDS011;5200;43.236;27.986;2022-09-21T08:02:44;1.23;;;0.60;;
10309;SDS011;5200;43.236;27.986;2022-09-21T08:05:13;3.05;;;0.73;;
10309;SDS011;5200;43.236;27.986;2022-09-21T08:07:40;1.48;;;0.80;;
10309;SDS011;5200;43.236;27.986;2022-09-21T08:10:07;1.15;;;0.88;;
10309;SDS011;5200;43.236;27.986;2022-09-21T08:12:35;0.98;;;0.60;;
10309;SDS011;5200;43.236;27.986;2022-09-21T08:15:02;0.80;;;0.80;;
10309;SDS011;5200;43.236;27.986;2022-09-21T08:17:29;1.02;;;0.88;;
10309;SDS011;5200;43.236;27.986;2022-09-21T08:19:56;1.10;;;0.80;;
10309;SDS011;5200;43.236;27.986;2022-09-21T08:22:25;1.00;;;0.90;;
10309;SDS011;5200;43.236;27.986;2022-09-21T08:24:52;0.73;;;0.73;;
10309;SDS011;5200;43.236;27.986;2022-09-21T08:27:20;0.90;;;0.90;;
10309;SDS011;5200;43.236;27.986;2022-09-21T08:29:47;0.65;;;0.65;;
10309;SDS011;5200;43.236;27.986;2022-09-21T08:32:14;1.60;;;0.80;;
10309;SDS011;5200;43.236;27.986;2022-09-21T08:34:40;1.85;;;0.70;;
10309;SDS011;5200;43.236;27.986;2022-09-21T08:37:07;1.48;;;1.10;;
10309;SDS011;5200;43.236;27.986;2022-09-21T08:39:36;2.13;;;1.10;;
10309;SDS011;5200;43.236;27.986;2022-09-21T08:42:16;1.17;;;1.08;;
10309;SDS011;5200;43.236;27.986;2022-09-21T08:44:56;1.48;;;0.73;;
10309;SDS011;5200;43.236;27.986;2022-09-21T08:47:33;2.42;;;0.60;;
10309;SDS011;5200;43.236;27.986;2022-09-21T08:50:05;2.22;;;0.80;;
10309;SDS011;5200;43.236;27.986;2022-09-21T08:52:45;0.95;;;0.88;;
10309;SDS011;5200;43.236;27.986;2022-09-21T08:55:15;0.82;;;0.82;;
10309;SDS011;5200;43.236;27.986;2022-09-21T08:57:44;1.35;;;1.00;;
10309;SDS011;5200;43.236;27.986;2022-09-21T09:00:12;2.63;;;0.93;;
10309;SDS011;5200;43.236;27.986;2022-09-21T09:03:00;0.70;;;0.70;;
10309;SDS011;5200;43.236;27.986;2022-09-21T09:05:46;0.80;;;0.80;;
10309;SDS011;5200;43.236;27.986;2022-09-21T09:08:22;0.60;;;0.60;;
10309;SDS011;5200;43.236;27.986;2022-09-21T09:11:26;1.38;;;0.77;;
10309;SDS011;5200;43.236;27.986;2022-09-21T09:14:09;0.70;;;0.70;;
10309;SDS011;5200;43.236;27.986;2022-09-21T09:16:50;1.75;;;0.85;;
10309;SDS011;5200;43.236;27.986;2022-09-21T09:19:26;1.75;;;0.60;;
10309;SDS011;5200;43.236;27.986;2022-09-21T09:21:59;0.88;;;0.88;;
10309;SDS011;5200;43.236;27.986;2022-09-21T09:24:30;1.08;;;0.77;;
10309;SDS011;5200;43.236;27.986;2022-09-21T09:27:04;1.13;;;1.00;;
10309;SDS011;5200;43.236;27.986;2022-09-21T09:29:41;1.02;;;0.95;;
10309;SDS011;5200;43.236;27.986;2022-09-21T09:32:14;0.80;;;0.65;;
10309;SDS011;5200;43.236;27.986;2022-09-21T09:34:43;0.95;;;0.50;;
10309;SDS011;5200;43.236;27.986;2022-09-21T09:37:18;1.23;;;0.70;;
10309;SDS011;5200;43.236;27.986;2022-09-21T09:39:50;0.95;;;0.80;;
10309;SDS011;5200;43.236;27.986;2022-09-21T09:45:20;0.57;;;0.57;;
10309;SDS011;5200;43.236;27.986;2022-09-21T09:48:02;0.88;;;0.85;;
10309;SDS011;5200;43.236;27.986;2022-09-21T09:50:39;0.77;;;0.77;;
10309;SDS011;5200;43.236;27.986;2022-09-21T09:53:08;3.58;;;0.80;;
10309;SDS011;5200;43.236;27.986;2022-09-21T09:55:38;1.13;;;0.73;;
10309;SDS011;5200;43.236;27.986;2022-09-21T09:58:14;1.42;;;0.85;;
10309;SDS011;5200;43.236;27.986;2022-09-21T10:00:44;1.52;;;0.73;;
10309;SDS011;5200;43.236;27.986;2022-09-21T10:03:15;0.93;;;0.70;;
10309;SDS011;5200;43.236;27.986;2022-09-21T10:05:44;0.85;;;0.60;;
10309;SDS011;5200;43.236;27.986;2022-09-21T10:10:55;0.70;;;0.70;;
10309;SDS011;5200;43.236;27.986;2022-09-21T10:13:25;1.27;;;0.93;;
10309;SDS011;5200;43.236;27.986;2022-09-21T10:15:56;1.75;;;1.00;;
10309;SDS011;5200;43.236;27.986;2022-09-21T10:18:25;2.65;;;0.90;;
10309;SDS011;5200;43.236;27.986;2022-09-21T10:20:56;1.30;;;1.20;;
10309;SDS011;5200;43.236;27.986;2022-09-21T10:23:26;1.55;;;0.90;;
10309;SDS011;5200;43.236;27.986;2022-09-21T10:25:56;0.98;;;0.80;;
10309;SDS011;5200;43.236;27.986;2022-09-21T10:28:28;4.93;;;1.25;;
10309;SDS011;5200;43.236;27.986;2022-09-21T10:33:50;1.23;;;1.08;;
10309;SDS011;5200;43.236;27.986;2022-09-21T10:36:26;2.60;;;1.27;;
10309;SDS011;5200;43.236;27.986;2022-09-21T10:38:55;0.90;;;0.90;;
10309;SDS011;5200;43.236;27.986;2022-09-21T10:41:35;1.73;;;1.10;;
10309;SDS011;5200;43.236;27.986;2022-09-21T10:44:04;3.45;;;0.90;;
10309;SDS011;5200;43.236;27.986;2022-09-21T10:46:41;0.88;;;0.88;;
10309;SDS011;5200;43.236;27.986;2022-09-21T10:49:12;1.65;;;1.00;;
10309;SDS011;5200;43.236;27.986;2022-09-21T10:51:43;0.68;;;0.68;;
10309;SDS011;5200;43.236;27.986;2022-09-21T10:54:14;2.05;;;0.85;;
10309;SDS011;5200;43.236;27.986;2022-09-21T10:56:50;0.70;;;0.70;;
10309;SDS011;5200;43.236;27.986;2022-09-21T10:59:22;1.33;;;1.10;;
10309;SDS011;5200;43.236;27.986;2022-09-21T11:01:51;0.90;;;0.70;;
10309;SDS011;5200;43.236;27.986;2022-09-21T11:04:28;3.35;;;0.80;;
10309;SDS011;5200;43.236;27.986;2022-09-21T11:07:01;2.42;;;1.08;;
10309;SDS011;5200;43.236;27.986;2022-09-21T11:09:33;1.63;;;0.80;;
10309;SDS011;5200;43.236;27.986;2022-09-21T11:12:05;1.80;;;0.73;;
10309;SDS011;5200;43.236;27.986;2022-09-21T11:14:44;0.85;;;0.75;;
10309;SDS011;5200;43.236;27.986;2022-09-21T11:17:24;1.55;;;0.70;;
10309;SDS011;5200;43.236;27.986;2022-09-21T11:20:02;0.85;;;0.75;;
10309;SDS011;5200;43.236;27.986;2022-09-21T11:22:37;1.80;;;0.70;;
10309;SDS011;5200;43.236;27.986;2022-09-21T11:25:17;0.70;;;0.70;;
10309;SDS011;5200;43.236;27.986;2022-09-21T11:27:53;1.02;;;0.98;;
10309;SDS011;5200;43.236;27.986;2022-09-21T11:30:28;5.68;;;0.85;;
10309;SDS011;5200;43.236;27.986;2022-09-21T11:33:09;2.53;;;1.40;;
10309;SDS011;5200;43.236;27.986;2022-09-21T11:35:46;0.70;;;0.70;;
10309;SDS011;5200;43.236;27.986;2022-09-21T11:38:26;2.47;;;0.80;;
10309;SDS011;5200;43.236;27.986;2022-09-21T11:41:07;2.05;;;1.20;;
10309;SDS011;5200;43.236;27.986;2022-09-21T11:43:56;1.85;;;0.75;;
10309;SDS011;5200;43.236;27.986;2022-09-21T11:46:37;5.25;;;1.60;;
10309;SDS011;5200;43.236;27.986;2022-09-21T11:52:13;3.75;;;1.73;;
10309;SDS011;5200;43.236;27.986;2022-09-21T11:54:56;5.53;;;1.60;;
10309;SDS011;5200;43.236;27.986;2022-09-21T11:57:34;5.63;;;1.95;;
10309;SDS011;5200;43.236;27.986;2022-09-21T12:00:12;1.75;;;1.50;;
10309;SDS011;5200;43.236;27.986;2022-09-21T12:02:53;4.80;;;1.88;;
10309;SDS011;5200;43.236;27.986;2022-09-21T12:05:44;6.65;;;1.80;;
10309;SDS011;5200;43.236;27.986;2022-09-21T12:11:12;2.45;;;0.90;;
10309;SDS011;5200;43.236;27.986;2022-09-21T12:13:48;0.60;;;0.60;;
10309;SDS011;5200;43.236;27.986;2022-09-21T12:16:24;1.67;;;0.98;;
10309;SDS011;5200;43.236;27.986;2022-09-21T12:18:59;1.20;;;1.10;;
10309;SDS011;5200;43.236;27.986;2022-09-21T12:21:35;3.40;;;1.40;;
10309;SDS011;5200;43.236;27.986;2022-09-21T12:24:11;4.93;;;1.50;;
10309;SDS011;5200;43.236;27.986;2022-09-21T12:26:43;2.58;;;1.38;;
10309;SDS011;5200;43.236;27.986;2022-09-21T12:29:16;1.90;;;1.20;;
10309;SDS011;5200;43.236;27.986;2022-09-21T12:31:55;4.20;;;1.40;;
10309;SDS011;5200;43.236;27.986;2022-09-21T12:34:30;1.63;;;1.52;;
10309;SDS011;5200;43.236;27.986;2022-09-21T12:37:06;2.05;;;1.80;;
10309;SDS011;5200;43.236;27.986;2022-09-21T12:39:39;3.70;;;1.77;;
10309;SDS011;5200;43.236;27.986;2022-09-21T12:42:14;3.90;;;1.73;;
10309;SDS011;5200;43.236;27.986;2022-09-21T12:44:55;3.10;;;1.65;;
10309;SDS011;5200;43.236;27.986;2022-09-21T12:47:38;2.70;;;1.80;;
10309;SDS011;5200;43.236;27.986;2022-09-21T12:50:15;6.65;;;1.95;;
10309;SDS011;5200;43.236;27.986;2022-09-21T12:52:47;4.25;;;2.03;;
10309;SDS011;5200;43.236;27.986;2022-09-21T12:55:25;1.95;;;1.60;;
10309;SDS011;5200;43.236;27.986;2022-09-21T12:58:11;2.40;;;1.67;;
10309;SDS011;5200;43.236;27.986;2022-09-21T13:00:52;2.17;;;1.85;;
10309;SDS011;5200;43.236;27.986;2022-09-21T13:03:29;2.47;;;2.10;;
10309;SDS011;5200;43.236;27.986;2022-09-21T13:06:07;2.75;;;1.65;;
10309;SDS011;5200;43.236;27.986;2022-09-21T13:08:53;3.50;;;2.08;;
10309;SDS011;5200;43.236;27.986;2022-09-21T13:11:22;2.80;;;1.80;;
10309;SDS011;5200;43.236;27.986;2022-09-21T13:13:50;4.03;;;1.75;;
10309;SDS011;5200;43.236;27.986;2022-09-21T13:16:23;2.35;;;2.13;;
10309;SDS011;5200;43.236;27.986;2022-09-21T13:18:53;2.80;;;2.60;;
10309;SDS011;5200;43.236;27.986;2022-09-21T13:21:24;5.45;;;2.08;;
10309;SDS011;5200;43.236;27.986;2022-09-21T13:23:54;2.13;;;1.80;;
10309;SDS011;5200;43.236;27.986;2022-09-21T13:26:30;4.05;;;1.73;;
10309;SDS011;5200;43.236;27.986;2022-09-21T13:31:56;5.85;;;1.55;;
10309;SDS011;5200;43.236;27.986;2022-09-21T13:34:25;3.85;;;1.90;;
10309;SDS011;5200;43.236;27.986;2022-09-21T13:43:18;2.67;;;1.70;;
10309;SDS011;5200;43.236;27.986;2022-09-21T13:45:49;1.52;;;1.40;;
10309;SDS011;5200;43.236;27.986;2022-09-21T13:48:25;2.20;;;2.00;;
10309;SDS011;5200;43.236;27.986;2022-09-21T13:51:05;3.58;;;2.80;;
10309;SDS011;5200;43.236;27.986;2022-09-21T13:53:36;2.20;;;2.00;;
10309;SDS011;5200;43.236;27.986;2022-09-21T13:56:07;3.00;;;1.92;;
10309;SDS011;5200;43.236;27.986;2022-09-21T13:58:45;2.53;;;1.90;;
10309;SDS011;5200;43.236;27.986;2022-09-21T14:01:17;1.65;;;1.05;;
10309;SDS011;5200;43.236;27.986;2022-09-21T14:03:47;1.40;;;1.27;;
10309;SDS011;5200;43.236;27.986;2022-09-21T14:06:17;1.77;;;1.67;;
10309;SDS011;5200;43.236;27.986;2022-09-21T14:08:50;2.70;;;1.85;;
10309;SDS011;5200;43.236;27.986;2022-09-21T14:11:26;3.03;;;1.88;;
10309;SDS011;5200;43.236;27.986;2022-09-21T14:14:11;2.75;;;1.50;;
10309;SDS011;5200;43.236;27.986;2022-09-21T14:16:50;1.00;;;1.00;;
10309;SDS011;5200;43.236;27.986;2022-09-21T14:22:36;0.70;;;0.70;;
10309;SDS011;5200;43.236;27.986;2022-09-21T14:28:14;0.90;;;0.90;;
10309;SDS011;5200;43.236;27.986;2022-09-21T14:30:48;1.65;;;1.00;;
10309;SDS011;5200;43.236;27.986;2022-09-21T14:36:08;1.63;;;1.02;;
10309;SDS011;5200;43.236;27.986;2022-09-21T14:38:42;1.30;;;1.20;;
10309;SDS011;5200;43.236;27.986;2022-09-21T14:41:17;1.30;;;1.20;;
10309;SDS011;5200;43.236;27.986;2022-09-21T14:43:48;0.90;;;0.70;;
10309;SDS011;5200;43.236;27.986;2022-09-21T14:46:34;2.33;;;0.68;;
10309;SDS011;5200;43.236;27.986;2022-09-21T14:49:32;1.38;;;1.08;;
10309;SDS011;5200;43.236;27.986;2022-09-21T14:52:23;1.38;;;1.17;;
10309;SDS011;5200;43.236;27.986;2022-09-21T14:55:06;2.58;;;1.30;;
10309;SDS011;5200;43.236;27.986;2022-09-21T14:57:49;1.70;;;1.00;;
10309;SDS011;5200;43.236;27.986;2022-09-21T15:00:41;1.30;;;1.20;;
10309;SDS011;5200;43.236;27.986;2022-09-21T15:03:32;1.02;;;0.98;;
10309;SDS011;5200;43.236;27.986;2022-09-21T15:06:15;1.27;;;0.80;;
10309;SDS011;5200;43.236;27.986;2022-09-21T15:09:12;0.90;;;0.80;;
10309;SDS011;5200;43.236;27.986;2022-09-21T15:12:12;0.80;;;0.80;;
10309;SDS011;5200;43.236;27.986;2022-09-21T15:14:45;0.82;;;0.82;;
10309;SDS011;5200;43.236;27.986;2022-09-21T15:17:21;1.00;;;1.00;;
10309;SDS011;5200;43.236;27.986;2022-09-21T15:19:50;3.72;;;1.75;;
10309;SDS011;5200;43.236;27.986;2022-09-21T15:22:17;0.80;;;0.80;;
10309;SDS011;5200;43.236;27.986;2022-09-21T15:24:50;1.20;;;0.90;;
10309;SDS011;5200;43.236;27.986;2022-09-21T15:27:18;4.47;;;1.23;;
10309;SDS011;5200;43.236;27.986;2022-09-21T15:29:50;1.80;;;1.17;;
10309;SDS011;5200;43.236;27.986;2022-09-21T15:32:22;1.20;;;1.10;;
10309;SDS011;5200;43.236;27.986;2022-09-21T15:34:56;2.05;;;1.58;;
10309;SDS011;5200;43.236;27.986;2022-09-21T15:37:26;1.27;;;1.10;;
10309;SDS011;5200;43.236;27.986;2022-09-21T15:40:00;1.23;;;1.23;;
10309;SDS011;5200;43.236;27.986;2022-09-21T15:42:29;1.40;;;1.30;;
10309;SDS011;5200;43.236;27.986;2022-09-21T15:45:15;1.25;;;1.15;;
10309;SDS011;5200;43.236;27.986;2022-09-21T15:47:44;1.83;;;1.73;;
10309;SDS011;5200;43.236;27.986;2022-09-21T15:50:11;2.72;;;1.40;;
10309;SDS011;5200;43.236;27.986;2022-09-21T15:52:40;2.00;;;1.75;;